createdAt,value
2022-08-26T00:02:03.981Z,1.17
2022-08-26T00:04:50.935Z,1.52
2022-08-26T00:07:38.196Z,1.30
2022-08-26T00:10:25.870Z,1.15
2022-08-26T00:13:13.375Z,1.40
2022-08-26T00:16:01.158Z,1.30
2022-08-26T00:18:50.159Z,1.20
2022-08-26T00:21:37.580Z,1.30
2022-08-26T00:24:26.014Z,1.30
2022-08-26T00:27:12.915Z,1.30
2022-08-26T00:30:07.178Z,1.02
2022-08-26T00:32:55.060Z,1.27
2022-08-26T00:35:43.102Z,1.05
2022-08-26T00:38:32.291Z,1.10
2022-08-26T00:41:19.768Z,1.20
2022-08-26T00:44:08.049Z,1.20
2022-08-26T00:47:00.442Z,1.48
2022-08-26T00:49:48.110Z,1.30
2022-08-26T00:52:36.020Z,1.40
2022-08-26T00:55:38.054Z,1.30
2022-08-26T00:58:28.131Z,1.05
2022-08-26T01:01:16.057Z,1.05
2022-08-26T01:04:03.964Z,1.17
2022-08-26T01:06:53.824Z,1.20
2022-08-26T01:09:40.867Z,1.13
2022-08-26T01:12:31.854Z,1.23
2022-08-26T01:15:30.286Z,1.50
2022-08-26T01:18:20.727Z,1.05
2022-08-26T01:21:28.717Z,1.23
2022-08-26T01:24:17.330Z,1.38
2022-08-26T01:27:08.496Z,1.10
2022-08-26T01:29:55.473Z,1.25
2022-08-26T01:32:43.917Z,1.25
2022-08-26T01:35:31.091Z,1.33
2022-08-26T01:38:18.783Z,1.30
2022-08-26T01:41:16.188Z,1.20
2022-08-26T01:44:09.815Z,1.20
2022-08-26T01:46:58.714Z,1.30
2022-08-26T01:49:48.465Z,1.30
2022-08-26T01:52:41.432Z,1.30
2022-08-26T01:55:33.004Z,1.17
2022-08-26T01:58:54.125Z,1.48
2022-08-26T02:01:41.213Z,1.33
2022-08-26T02:04:36.615Z,1.45
2022-08-26T02:07:26.682Z,1.40
2022-08-26T02:10:15.539Z,1.40
2022-08-26T02:13:03.955Z,1.33
2022-08-26T02:15:52.305Z,1.15
2022-08-26T02:18:41.634Z,1.50
2022-08-26T02:21:30.531Z,1.20
2022-08-26T02:24:22.241Z,1.30
2022-08-26T02:27:10.578Z,1.40
2022-08-26T02:30:07.373Z,1.67
2022-08-26T02:32:54.939Z,1.50
2022-08-26T02:35:43.453Z,1.40
2022-08-26T02:38:30.446Z,1.30
2022-08-26T02:41:18.147Z,1.30
2022-08-26T02:44:07.198Z,1.50
2022-08-26T02:49:47.461Z,1.30
2022-08-26T02:52:35.140Z,1.55
2022-08-26T02:55:22.103Z,1.50
2022-08-26T02:58:12.078Z,1.30
2022-08-26T03:00:59.649Z,1.60
2022-08-26T03:03:48.676Z,1.20
2022-08-26T03:06:37.236Z,1.42
2022-08-26T03:09:25.265Z,1.40
2022-08-26T03:12:12.605Z,1.45
2022-08-26T03:15:01.442Z,1.48
2022-08-26T03:17:50.237Z,1.60
2022-08-26T03:23:25.265Z,1.50
2022-08-26T03:26:15.671Z,1.65
2022-08-26T03:29:22.008Z,1.27
2022-08-26T03:32:09.547Z,1.27
2022-08-26T03:34:58.003Z,1.35
2022-08-26T03:37:45.381Z,1.52
2022-08-26T03:40:33.908Z,1.50
2022-08-26T03:43:22.541Z,1.70
2022-08-26T03:46:12.289Z,1.42
2022-08-26T03:49:01.487Z,1.33
2022-08-26T03:51:48.397Z,1.50
2022-08-26T03:54:35.869Z,1.30
2022-08-26T03:57:22.800Z,1.38
2022-08-26T04:00:15.436Z,1.45
2022-08-26T04:03:05.556Z,1.70
2022-08-26T04:05:57.185Z,1.92
2022-08-26T04:08:45.206Z,1.60
2022-08-26T04:11:34.329Z,1.50
2022-08-26T04:14:24.087Z,1.58
2022-08-26T04:17:12.186Z,1.42
2022-08-26T04:19:59.113Z,1.58
2022-08-26T04:22:46.591Z,1.52
2022-08-26T04:25:33.549Z,1.80
2022-08-26T04:31:14.912Z,1.50
2022-08-26T04:34:03.181Z,1.83
2022-08-26T04:36:51.454Z,1.83
2022-08-26T04:39:38.879Z,1.70
2022-08-26T04:42:26.438Z,1.73
2022-08-26T04:45:13.626Z,1.80
2022-08-26T04:48:01.346Z,1.45
2022-08-26T04:50:51.756Z,1.75
2022-08-26T04:53:38.830Z,1.75
2022-08-26T04:56:32.838Z,1.63
2022-08-26T04:59:20.333Z,1.83
2022-08-26T05:02:08.719Z,1.50
2022-08-26T05:04:56.413Z,1.60
2022-08-26T05:07:43.412Z,1.77
2022-08-26T05:10:30.382Z,2.00
2022-08-26T05:13:20.593Z,1.67
2022-08-26T05:16:11.671Z,1.77
2022-08-26T05:18:59.115Z,1.60
2022-08-26T05:21:48.477Z,1.95
2022-08-26T05:24:36.449Z,1.45
2022-08-26T05:27:25.101Z,1.60
2022-08-26T05:30:12.383Z,1.75
2022-08-26T05:32:59.454Z,1.65
2022-08-26T05:35:47.204Z,1.80
2022-08-26T05:38:34.833Z,1.52
2022-08-26T05:41:34.527Z,1.60
2022-08-26T05:44:23.937Z,1.73
2022-08-26T05:47:10.941Z,2.60
2022-08-26T05:49:57.911Z,1.73
2022-08-26T05:52:44.978Z,1.55
2022-08-26T05:55:33.277Z,1.50
2022-08-26T06:01:14.423Z,1.58
2022-08-26T06:04:02.184Z,1.58
2022-08-26T06:06:49.166Z,1.85
2022-08-26T06:09:37.722Z,1.42
2022-08-26T06:12:25.582Z,1.55
2022-08-26T06:15:12.784Z,1.45
2022-08-26T06:18:02.529Z,1.30
2022-08-26T06:20:57.866Z,1.48
2022-08-26T06:26:54.258Z,1.60
2022-08-26T06:29:41.894Z,1.70
2022-08-26T06:32:28.985Z,1.80
2022-08-26T06:35:16.439Z,1.70
2022-08-26T06:38:03.734Z,1.92
2022-08-26T06:40:54.945Z,1.70
2022-08-26T06:43:42.031Z,1.70
2022-08-26T06:46:29.879Z,1.60
2022-08-26T06:49:17.326Z,1.60
2022-08-26T06:52:04.699Z,1.58
2022-08-26T06:54:54.818Z,1.60
2022-08-26T06:57:41.856Z,1.50
2022-08-26T07:00:28.880Z,1.90
2022-08-26T07:03:15.907Z,1.60
2022-08-26T07:06:04.283Z,1.60
2022-08-26T07:08:54.005Z,1.95
2022-08-26T07:11:41.493Z,1.63
2022-08-26T07:14:28.512Z,1.85
2022-08-26T07:17:16.155Z,1.60
2022-08-26T07:20:07.060Z,1.70
2022-08-26T07:22:54.679Z,1.50
2022-08-26T07:25:42.643Z,1.33
2022-08-26T07:28:30.554Z,1.75
2022-08-26T07:31:18.707Z,1.70
2022-08-26T07:34:07.709Z,1.40
2022-08-26T07:39:43.236Z,1.60
2022-08-26T07:42:30.432Z,1.67
2022-08-26T07:45:17.562Z,1.55
2022-08-26T07:48:05.340Z,1.92
2022-08-26T07:50:53.799Z,1.63
2022-08-26T07:53:41.058Z,1.50
2022-08-26T07:56:28.449Z,1.73
2022-08-26T07:59:17.234Z,1.45
2022-08-26T08:02:04.323Z,1.60
2022-08-26T08:04:52.391Z,1.60
2022-08-26T08:07:45.041Z,1.60
2022-08-26T08:10:34.048Z,1.60
2022-08-26T08:13:21.094Z,1.63
2022-08-26T08:16:12.498Z,1.42
2022-08-26T08:18:59.858Z,1.60
2022-08-26T08:21:47.267Z,1.58
2022-08-26T08:24:35.292Z,1.60
2022-08-26T08:27:24.077Z,1.55
2022-08-26T08:30:15.491Z,1.50
2022-08-26T08:33:09.735Z,1.60
2022-08-26T08:35:59.143Z,1.60
2022-08-26T08:38:46.371Z,1.60
2022-08-26T08:41:39.994Z,1.45
2022-08-26T08:47:32.193Z,1.63
2022-08-26T08:50:30.021Z,1.50
2022-08-26T08:53:37.832Z,1.60
2022-08-26T08:56:24.843Z,1.70
2022-08-26T08:59:26.356Z,1.58
2022-08-26T09:05:15.077Z,1.70
2022-08-26T09:08:06.801Z,1.58
2022-08-26T09:11:01.003Z,1.70
2022-08-26T09:13:53.338Z,1.63
2022-08-26T09:16:40.353Z,1.55
2022-08-26T09:19:41.907Z,1.63
2022-08-26T09:22:36.000Z,1.70
2022-08-26T09:25:23.310Z,1.67
2022-08-26T09:28:16.367Z,1.80
2022-08-26T09:31:27.673Z,1.60
2022-08-26T09:34:28.105Z,1.70
2022-08-26T09:37:33.612Z,1.80
2022-08-26T09:40:31.083Z,1.73
2022-08-26T09:46:18.745Z,2.08
2022-08-26T09:49:26.882Z,1.98
2022-08-26T09:52:17.820Z,1.60
2022-08-26T09:55:12.944Z,2.00
2022-08-26T09:58:08.928Z,1.88
2022-08-26T10:00:58.597Z,1.77
2022-08-26T10:03:47.138Z,1.75
2022-08-26T10:06:56.991Z,1.85
2022-08-26T10:09:44.885Z,1.70
2022-08-26T10:12:34.725Z,1.83
2022-08-26T10:15:25.469Z,1.80
2022-08-26T10:18:17.693Z,1.80
2022-08-26T10:21:10.973Z,1.85
2022-08-26T10:24:01.904Z,1.80
2022-08-26T10:27:03.929Z,1.70
2022-08-26T10:29:56.739Z,1.83
2022-08-26T10:33:05.256Z,1.92
2022-08-26T10:35:55.907Z,1.77
2022-08-26T10:38:44.290Z,2.03
2022-08-26T10:41:39.256Z,2.42
2022-08-26T10:44:31.068Z,1.80
2022-08-26T10:47:24.694Z,1.60
2022-08-26T10:50:12.792Z,2.05
2022-08-26T10:52:59.762Z,2.40
2022-08-26T10:55:49.914Z,1.60
2022-08-26T10:59:06.342Z,1.95
2022-08-26T11:02:08.812Z,1.67
2022-08-26T11:05:16.990Z,2.30
2022-08-26T11:08:30.714Z,1.63
2022-08-26T11:11:39.944Z,1.98
2022-08-26T11:14:38.560Z,1.95
2022-08-26T11:18:01.615Z,2.03
2022-08-26T11:20:48.799Z,2.10
2022-08-26T11:23:50.541Z,1.73
2022-08-26T11:26:56.418Z,2.00
2022-08-26T11:30:00.592Z,2.17
2022-08-26T11:32:57.330Z,1.92
2022-08-26T11:35:48.698Z,2.10
2022-08-26T11:38:40.808Z,2.35
2022-08-26T11:41:30.058Z,2.08
2022-08-26T11:44:20.128Z,2.10
2022-08-26T11:47:11.600Z,1.98
2022-08-26T11:50:10.439Z,2.35
2022-08-26T11:53:07.648Z,2.45
2022-08-26T11:55:56.903Z,1.85
2022-08-26T11:58:46.804Z,2.00
2022-08-26T12:01:40.078Z,2.00
2022-08-26T12:04:32.217Z,1.95
2022-08-26T12:07:24.563Z,1.98
2022-08-26T12:10:26.188Z,1.60
2022-08-26T12:13:27.030Z,2.20
2022-08-26T12:16:24.218Z,1.80
2022-08-26T12:19:32.697Z,1.80
2022-08-26T12:22:29.057Z,1.80
2022-08-26T12:25:22.936Z,1.85
2022-08-26T12:28:10.817Z,2.25
2022-08-26T12:31:05.058Z,2.20
2022-08-26T12:33:53.065Z,2.35
2022-08-26T12:39:38.637Z,2.50
2022-08-26T12:42:42.347Z,2.45
2022-08-26T12:45:37.633Z,2.25
2022-08-26T12:48:33.932Z,2.60
2022-08-26T12:51:29.219Z,2.40
2022-08-26T12:54:17.907Z,2.00
2022-08-26T12:57:13.350Z,2.20
2022-08-26T13:00:31.563Z,2.22
2022-08-26T13:03:45.668Z,2.30
2022-08-26T13:06:34.851Z,2.25
2022-08-26T13:09:21.927Z,2.30
2022-08-26T13:12:08.997Z,2.22
2022-08-26T13:14:58.844Z,2.22
2022-08-26T13:17:45.921Z,2.00
2022-08-26T13:20:33.803Z,2.47
2022-08-26T13:23:23.483Z,2.50
2022-08-26T13:26:11.017Z,2.50
2022-08-26T13:29:02.017Z,2.40
2022-08-26T13:31:49.736Z,2.45
2022-08-26T13:34:37.671Z,2.47
2022-08-26T13:37:34.980Z,2.40
2022-08-26T13:40:22.490Z,2.90
2022-08-26T13:43:12.789Z,2.33
2022-08-26T13:46:00.969Z,2.28
2022-08-26T13:48:48.030Z,2.53
2022-08-26T13:51:36.211Z,2.63
2022-08-26T13:54:24.068Z,2.70
2022-08-26T13:57:11.117Z,2.38
2022-08-26T13:59:59.748Z,2.33
2022-08-26T14:02:47.988Z,2.50
2022-08-26T14:05:35.289Z,2.35
2022-08-26T14:08:23.355Z,2.20
2022-08-26T14:11:11.093Z,2.15
2022-08-26T14:13:58.151Z,2.28
2022-08-26T14:16:58.648Z,2.10
2022-08-26T14:19:49.293Z,1.95
2022-08-26T14:23:03.422Z,2.53
2022-08-26T14:25:52.470Z,1.75
2022-08-26T14:28:39.607Z,2.05
2022-08-26T14:31:29.535Z,1.70
2022-08-26T14:34:16.901Z,1.83
2022-08-26T14:37:07.211Z,1.80
2022-08-26T14:39:55.341Z,1.90
2022-08-26T14:42:44.746Z,1.60
2022-08-26T14:48:32.668Z,2.00
2022-08-26T14:51:21.765Z,1.70
2022-08-26T14:54:13.359Z,1.80
2022-08-26T14:57:07.373Z,1.98
2022-08-26T14:59:54.492Z,1.90
2022-08-26T15:02:41.735Z,1.65
2022-08-26T15:05:29.001Z,1.80
2022-08-26T15:08:16.915Z,1.90
2022-08-26T15:11:04.421Z,1.70
2022-08-26T15:13:51.465Z,1.73
2022-08-26T15:16:38.789Z,1.85
2022-08-26T15:19:26.988Z,1.70
2022-08-26T15:22:14.056Z,2.40
2022-08-26T15:25:01.362Z,2.00
2022-08-26T15:27:48.419Z,2.00
2022-08-26T15:30:35.803Z,2.00
2022-08-26T15:33:23.248Z,2.20
2022-08-26T15:36:10.487Z,2.15
2022-08-26T15:38:59.388Z,2.40
2022-08-26T15:44:34.361Z,2.35
2022-08-26T15:47:22.311Z,2.13
2022-08-26T15:50:09.816Z,2.00
2022-08-26T15:52:57.231Z,2.60
2022-08-26T15:55:44.591Z,2.22
2022-08-26T15:58:31.737Z,2.40
2022-08-26T16:01:24.375Z,1.95
2022-08-26T16:04:15.171Z,2.53
2022-08-26T16:07:02.638Z,2.13
2022-08-26T16:09:54.108Z,2.50
2022-08-26T16:12:41.376Z,2.10
2022-08-26T16:15:28.515Z,2.08
2022-08-26T16:18:16.057Z,1.88
2022-08-26T16:21:13.537Z,1.95
2022-08-26T16:24:01.304Z,2.08
2022-08-26T16:26:48.873Z,1.77
2022-08-26T16:29:38.381Z,1.90
2022-08-26T16:32:28.277Z,2.10
2022-08-26T16:35:17.836Z,2.05
2022-08-26T16:38:05.267Z,2.03
2022-08-26T16:40:52.342Z,1.90
2022-08-26T16:43:39.432Z,1.88
2022-08-26T16:46:27.751Z,1.70
2022-08-26T16:49:14.847Z,1.80
2022-08-26T16:52:01.970Z,1.90
2022-08-26T16:54:49.398Z,2.05
2022-08-26T16:57:38.672Z,1.90
2022-08-26T17:00:28.600Z,2.55
2022-08-26T17:03:16.003Z,2.03
2022-08-26T17:06:03.340Z,2.00
2022-08-26T17:08:50.602Z,2.03
2022-08-26T17:11:37.937Z,2.45
2022-08-26T17:14:25.240Z,2.30
2022-08-26T17:17:12.304Z,2.58
2022-08-26T17:20:00.688Z,2.40
2022-08-26T17:22:49.729Z,2.30
2022-08-26T17:25:37.151Z,2.30
2022-08-26T17:28:24.230Z,2.38
2022-08-26T17:31:12.990Z,2.53
2022-08-26T17:34:00.033Z,2.50
2022-08-26T17:36:47.307Z,2.40
2022-08-26T17:39:37.187Z,2.70
2022-08-26T17:42:31.625Z,2.28
2022-08-26T17:48:08.242Z,2.40
2022-08-26T17:50:56.495Z,2.42
2022-08-26T17:53:43.461Z,2.42
2022-08-26T17:56:31.131Z,2.30
2022-08-26T17:59:18.132Z,2.20
2022-08-26T18:02:05.119Z,2.40
2022-08-26T18:04:52.160Z,2.38
2022-08-26T18:07:43.684Z,2.67
2022-08-26T18:10:31.507Z,2.53
2022-08-26T18:13:19.019Z,2.60
2022-08-26T18:16:07.177Z,2.60
2022-08-26T18:18:54.759Z,2.53
2022-08-26T18:21:41.799Z,2.40
2022-08-26T18:24:30.507Z,2.75
2022-08-26T18:27:17.495Z,2.70
2022-08-26T18:30:07.506Z,2.70
2022-08-26T18:32:54.552Z,2.50
2022-08-26T18:35:43.428Z,2.60
2022-08-26T18:38:30.632Z,2.80
2022-08-26T18:41:23.364Z,2.58
2022-08-26T18:44:13.615Z,2.67
2022-08-26T18:47:00.909Z,2.70
2022-08-26T18:49:48.809Z,2.60
2022-08-26T18:52:35.776Z,2.75
2022-08-26T18:55:23.104Z,2.95
2022-08-26T18:58:10.153Z,2.35
2022-08-26T19:00:58.073Z,2.80
2022-08-26T19:03:46.258Z,2.97
2022-08-26T19:06:35.713Z,2.78
2022-08-26T19:09:22.768Z,2.60
2022-08-26T19:12:10.164Z,2.80
2022-08-26T19:14:57.169Z,2.60
2022-08-26T19:17:44.260Z,2.63
2022-08-26T19:20:31.248Z,2.63
2022-08-26T19:23:31.556Z,2.80
2022-08-26T19:26:19.431Z,2.70
2022-08-26T19:29:06.866Z,2.65
2022-08-26T19:31:54.139Z,2.67
2022-08-26T19:34:41.268Z,2.60
2022-08-26T19:37:28.274Z,3.33
2022-08-26T19:40:16.180Z,2.45
2022-08-26T19:43:06.488Z,2.70
2022-08-26T19:45:53.677Z,2.60
2022-08-26T19:48:44.057Z,2.70
2022-08-26T19:51:33.601Z,2.33
2022-08-26T19:54:22.762Z,2.75
2022-08-26T19:57:09.760Z,2.50
2022-08-26T19:59:58.491Z,2.40
2022-08-26T20:02:45.854Z,2.60
2022-08-26T20:05:32.930Z,3.13
2022-08-26T20:08:22.450Z,2.40
2022-08-26T20:11:13.298Z,2.33
2022-08-26T20:14:00.662Z,2.60
2022-08-26T20:16:49.315Z,2.65
2022-08-26T20:19:54.999Z,2.42
2022-08-26T20:22:42.159Z,2.67
2022-08-26T20:25:29.339Z,2.80
2022-08-26T20:28:16.409Z,2.40
2022-08-26T20:31:03.646Z,2.83
2022-08-26T20:33:51.712Z,2.83
2022-08-26T20:36:39.856Z,2.83
2022-08-26T20:39:29.687Z,2.67
2022-08-26T20:42:20.264Z,2.60
2022-08-26T20:45:08.698Z,2.58
2022-08-26T20:47:55.743Z,2.40
2022-08-26T20:50:42.777Z,2.22
2022-08-26T20:53:30.283Z,2.60
2022-08-26T20:56:21.934Z,2.60
2022-08-26T20:59:09.864Z,2.50
2022-08-26T21:01:57.871Z,2.30
2022-08-26T21:04:45.067Z,2.63
2022-08-26T21:07:32.352Z,2.30
2022-08-26T21:10:19.513Z,2.55
2022-08-26T21:15:57.212Z,2.10
2022-08-26T21:18:44.255Z,2.25
2022-08-26T21:21:32.031Z,2.63
2022-08-26T21:24:19.137Z,2.50
2022-08-26T21:27:06.238Z,2.33
2022-08-26T21:29:53.379Z,2.70
2022-08-26T21:32:40.651Z,2.47
2022-08-26T21:35:27.713Z,2.40
2022-08-26T21:38:14.855Z,2.70
2022-08-26T21:41:04.910Z,2.40
2022-08-26T21:43:56.486Z,2.40
2022-08-26T21:46:45.278Z,2.22
2022-08-26T21:49:32.502Z,2.33
2022-08-26T21:52:21.388Z,2.25
2022-08-26T21:55:11.765Z,2.47
2022-08-26T21:57:58.871Z,2.30
2022-08-26T22:00:48.923Z,2.33
2022-08-26T22:03:46.839Z,2.22
2022-08-26T22:06:39.270Z,2.35
2022-08-26T22:09:29.191Z,2.30
2022-08-26T22:12:18.559Z,2.10
2022-08-26T22:15:06.331Z,2.13
2022-08-26T22:17:53.423Z,2.60
2022-08-26T22:20:40.595Z,2.58
2022-08-26T22:23:28.345Z,2.63
2022-08-26T22:26:25.392Z,2.42
2022-08-26T22:29:13.193Z,2.50
2022-08-26T22:32:01.195Z,2.40
2022-08-26T22:34:48.723Z,2.40
2022-08-26T22:37:35.787Z,2.25
2022-08-26T22:40:23.085Z,2.45
2022-08-26T22:43:10.193Z,2.60
2022-08-26T22:45:57.524Z,2.20
2022-08-26T22:48:45.215Z,2.25
2022-08-26T22:51:32.489Z,2.22
2022-08-26T22:54:19.549Z,2.28
2022-08-26T22:57:07.185Z,2.58
2022-08-26T22:59:54.242Z,2.05
2022-08-26T23:02:41.866Z,1.95
2022-08-26T23:05:29.728Z,2.42
2022-08-26T23:08:17.428Z,2.10
2022-08-26T23:11:09.158Z,2.60
2022-08-26T23:13:56.363Z,2.42
2022-08-26T23:16:43.433Z,2.22
2022-08-26T23:19:30.585Z,2.30
2022-08-26T23:22:17.865Z,2.35
2022-08-26T23:25:08.369Z,2.30
2022-08-26T23:27:57.112Z,2.47
2022-08-26T23:30:44.385Z,2.35
2022-08-26T23:33:51.453Z,1.88
2022-08-26T23:36:38.669Z,2.50
2022-08-26T23:39:26.280Z,2.10
2022-08-26T23:42:13.765Z,2.00
2022-08-26T23:45:01.228Z,2.00
2022-08-26T23:47:51.307Z,2.10
2022-08-26T23:50:56.587Z,2.28
2022-08-26T23:53:43.793Z,2.30
2022-08-26T23:56:30.814Z,2.40
2022-08-26T23:59:18.001Z,2.47
